createdAt,value
2024-05-09T00:00:59.644Z,7.20
2024-05-09T00:03:28.975Z,5.10
2024-05-09T00:05:58.153Z,4.97
2024-05-09T00:08:27.739Z,6.40
2024-05-09T00:10:58.011Z,6.05
2024-05-09T00:13:27.956Z,6.45
2024-05-09T00:15:57.572Z,5.47
2024-05-09T00:18:27.488Z,5.28
2024-05-09T00:20:56.997Z,5.78
2024-05-09T00:23:26.652Z,8.15
2024-05-09T00:25:56.209Z,7.00
2024-05-09T00:28:26.086Z,5.45
2024-05-09T00:30:55.340Z,6.85
2024-05-09T00:33:30.009Z,4.53
2024-05-09T00:35:59.328Z,6.50
2024-05-09T00:38:28.743Z,5.20
2024-05-09T00:40:58.068Z,5.00
2024-05-09T00:43:27.382Z,7.28
2024-05-09T00:45:57.615Z,4.95
2024-05-09T00:48:27.675Z,4.47
2024-05-09T00:50:57.901Z,6.05
2024-05-09T00:53:28.172Z,6.85
2024-05-09T00:56:00.487Z,4.78
2024-05-09T00:58:32.062Z,5.50
2024-05-09T01:01:04.482Z,4.53
2024-05-09T01:03:36.900Z,4.88
2024-05-09T01:06:07.323Z,5.43
2024-05-09T01:08:38.197Z,4.10
2024-05-09T01:11:10.610Z,5.22
2024-05-09T01:13:40.858Z,5.65
2024-05-09T01:16:10.452Z,4.82
2024-05-09T01:18:40.986Z,4.80
2024-05-09T01:21:11.331Z,4.70
2024-05-09T01:23:42.780Z,5.65
2024-05-09T01:26:11.742Z,6.53
2024-05-09T01:31:15.889Z,4.07
2024-05-09T01:33:45.931Z,4.35
2024-05-09T01:36:16.839Z,4.63
2024-05-09T01:38:48.490Z,4.20
2024-05-09T01:41:18.880Z,4.57
2024-05-09T01:43:49.366Z,5.53
2024-05-09T01:46:17.224Z,5.55
2024-05-09T01:48:46.341Z,4.18
2024-05-09T01:51:16.689Z,4.45
2024-05-09T01:53:46.971Z,4.55
2024-05-09T01:56:17.054Z,5.32
2024-05-09T01:58:47.477Z,5.10
2024-05-09T02:01:17.330Z,5.63
2024-05-09T02:03:48.467Z,4.80
2024-05-09T02:06:19.535Z,4.82
2024-05-09T02:08:49.552Z,6.32
2024-05-09T02:11:19.692Z,6.00
2024-05-09T02:13:49.717Z,5.88
2024-05-09T02:16:19.060Z,4.95
2024-05-09T02:18:50.638Z,6.97
2024-05-09T02:21:20.455Z,3.78
2024-05-09T02:23:50.251Z,4.13
2024-05-09T02:26:19.831Z,5.32
2024-05-09T02:28:49.971Z,4.07
2024-05-09T02:31:20.422Z,4.57
2024-05-09T02:33:50.264Z,5.60
2024-05-09T02:36:22.532Z,4.80
2024-05-09T02:38:53.846Z,5.00
2024-05-09T02:41:23.806Z,5.50
2024-05-09T02:43:54.665Z,4.85
2024-05-09T02:46:24.002Z,6.35
2024-05-09T02:48:54.224Z,5.38
2024-05-09T02:51:23.616Z,5.45
2024-05-09T02:53:54.463Z,4.97
2024-05-09T02:56:23.878Z,4.97
2024-05-09T02:58:54.070Z,6.68
2024-05-09T03:01:23.768Z,5.57
2024-05-09T03:03:54.360Z,6.07
2024-05-09T03:06:24.517Z,4.97
2024-05-09T03:08:54.156Z,5.55
2024-05-09T03:11:25.264Z,5.30
2024-05-09T03:13:55.090Z,5.20
2024-05-09T03:16:24.518Z,7.30
2024-05-09T03:18:57.063Z,5.97
2024-05-09T03:21:26.349Z,5.90
2024-05-09T03:23:56.086Z,7.35
2024-05-09T03:26:25.316Z,7.07
2024-05-09T03:28:55.677Z,7.07
2024-05-09T03:31:24.891Z,7.90
2024-05-09T03:33:54.525Z,7.03
2024-05-09T03:36:23.940Z,7.47
2024-05-09T03:38:53.767Z,6.43
2024-05-09T03:41:23.195Z,6.40
2024-05-09T03:43:52.815Z,5.78
2024-05-09T03:46:22.334Z,5.57
2024-05-09T03:48:51.807Z,5.90
2024-05-09T03:51:21.368Z,5.53
2024-05-09T03:53:50.658Z,6.88
2024-05-09T03:56:20.258Z,7.55
2024-05-09T03:58:49.759Z,6.25
2024-05-09T04:01:19.165Z,6.20
2024-05-09T04:03:48.569Z,6.75
2024-05-09T04:06:26.498Z,7.22
2024-05-09T04:08:56.354Z,6.53
2024-05-09T04:11:25.638Z,7.90
2024-05-09T04:13:54.997Z,7.07
2024-05-09T04:16:24.446Z,5.68
2024-05-09T04:18:54.058Z,8.40
2024-05-09T04:21:23.373Z,7.82
2024-05-09T04:23:52.867Z,5.78
2024-05-09T04:26:22.762Z,6.97
2024-05-09T04:28:52.150Z,6.40
2024-05-09T04:31:21.510Z,7.80
2024-05-09T04:33:50.971Z,7.20
2024-05-09T04:36:20.400Z,6.53
2024-05-09T04:38:50.080Z,8.95
2024-05-09T04:41:19.997Z,6.82
2024-05-09T04:43:51.017Z,7.35
2024-05-09T04:46:18.287Z,6.30
2024-05-09T04:48:45.768Z,6.10
2024-05-09T04:51:15.227Z,8.77
2024-05-09T04:53:44.870Z,7.20
2024-05-09T04:56:14.347Z,5.88
2024-05-09T04:58:43.932Z,7.00
2024-05-09T05:01:15.387Z,5.93
2024-05-09T05:03:45.725Z,6.78
2024-05-09T05:06:15.256Z,5.75
2024-05-09T05:08:45.178Z,6.57
2024-05-09T05:11:14.454Z,5.30
2024-05-09T05:13:44.938Z,5.38
2024-05-09T05:16:14.591Z,9.13
2024-05-09T05:18:44.742Z,5.63
2024-05-09T05:21:14.066Z,4.53
2024-05-09T05:23:44.075Z,5.60
2024-05-09T05:26:13.540Z,5.00
2024-05-09T05:28:42.838Z,4.95
2024-05-09T05:31:12.401Z,4.93
2024-05-09T05:33:42.037Z,5.22
2024-05-09T05:36:11.693Z,4.88
2024-05-09T05:38:41.779Z,4.18
2024-05-09T05:41:11.216Z,4.30
2024-05-09T05:43:40.847Z,6.25
2024-05-09T05:46:10.162Z,3.08
2024-05-09T05:48:37.373Z,4.20
2024-05-09T05:51:07.966Z,4.40
2024-05-09T05:53:38.463Z,4.15
2024-05-09T05:56:08.659Z,4.38
2024-05-09T05:58:39.183Z,4.70
2024-05-09T06:01:09.148Z,4.88
2024-05-09T06:03:40.281Z,3.22
2024-05-09T06:06:10.386Z,6.05
2024-05-09T06:08:40.245Z,3.50
2024-05-09T06:11:10.337Z,5.13
2024-05-09T06:13:44.224Z,3.90
2024-05-09T06:16:14.140Z,5.53
2024-05-09T06:18:44.382Z,4.82
2024-05-09T06:21:17.365Z,4.50
2024-05-09T06:23:51.035Z,4.18
2024-05-09T06:26:21.156Z,5.20
2024-05-09T06:28:50.751Z,4.63
2024-05-09T06:31:21.066Z,8.15
2024-05-09T06:33:50.914Z,3.50
2024-05-09T06:36:22.293Z,3.50
2024-05-09T06:38:52.446Z,5.15
2024-05-09T06:41:21.910Z,3.75
2024-05-09T06:43:54.438Z,4.53
2024-05-09T06:46:25.443Z,4.65
2024-05-09T06:48:56.597Z,3.67
2024-05-09T06:51:26.688Z,4.95
2024-05-09T06:53:56.675Z,3.42
2024-05-09T06:56:26.213Z,4.40
2024-05-09T06:58:56.049Z,3.42
2024-05-09T07:01:25.957Z,5.93
2024-05-09T07:03:55.960Z,4.68
2024-05-09T07:06:25.686Z,2.92
2024-05-09T07:08:56.812Z,5.03
2024-05-09T07:11:26.550Z,4.93
2024-05-09T07:13:57.475Z,5.25
2024-05-09T07:16:24.920Z,4.63
2024-05-09T07:18:55.189Z,6.20
2024-05-09T07:21:24.899Z,4.38
2024-05-09T07:23:54.744Z,3.70
2024-05-09T07:26:24.911Z,5.03
2024-05-09T07:28:55.711Z,3.83
2024-05-09T07:31:28.133Z,3.70
2024-05-09T07:33:58.918Z,6.43
2024-05-09T07:36:27.272Z,2.80
2024-05-09T07:38:55.177Z,3.97
2024-05-09T07:41:25.069Z,2.88
2024-05-09T07:43:56.266Z,6.60
2024-05-09T07:47:36.774Z,3.10
2024-05-09T07:51:31.603Z,3.17
2024-05-09T07:54:40.895Z,3.83
2024-05-09T07:57:10.583Z,4.03
2024-05-09T07:59:40.376Z,2.80
2024-05-09T08:02:10.637Z,3.80
2024-05-09T08:04:40.884Z,2.95
2024-05-09T08:07:10.420Z,2.88
2024-05-09T08:09:39.828Z,3.38
2024-05-09T08:12:09.495Z,3.90
2024-05-09T08:14:39.427Z,3.40
2024-05-09T08:17:09.012Z,4.60
2024-05-09T08:19:40.924Z,3.47
2024-05-09T08:22:13.189Z,4.30
2024-05-09T08:24:43.456Z,3.67
2024-05-09T08:27:13.162Z,2.28
2024-05-09T08:29:44.293Z,3.45
2024-05-09T08:32:14.734Z,3.45
2024-05-09T08:34:44.756Z,3.58
2024-05-09T08:37:21.499Z,4.15
2024-05-09T08:39:53.978Z,4.28
2024-05-09T08:42:23.898Z,3.30
2024-05-09T08:44:54.079Z,2.70
2024-05-09T08:47:24.967Z,5.75
2024-05-09T08:49:58.800Z,2.22
2024-05-09T08:52:28.883Z,4.30
2024-05-09T08:54:59.162Z,3.00
2024-05-09T08:57:30.977Z,3.67
2024-05-09T09:00:10.230Z,2.45
2024-05-09T09:02:47.466Z,3.78
2024-05-09T09:05:21.422Z,2.22
2024-05-09T09:07:52.048Z,2.85
2024-05-09T09:10:29.922Z,3.30
2024-05-09T09:13:05.072Z,2.92
2024-05-09T09:15:47.298Z,3.08
2024-05-09T09:18:19.448Z,3.58
2024-05-09T09:20:50.230Z,3.67
2024-05-09T09:25:51.993Z,3.55
2024-05-09T09:28:23.412Z,3.92
2024-05-09T09:30:53.685Z,3.03
2024-05-09T09:33:26.163Z,3.60
2024-05-09T09:35:56.180Z,2.58
2024-05-09T09:38:30.720Z,2.22
2024-05-09T09:41:05.212Z,2.92
2024-05-09T09:43:36.383Z,2.22
2024-05-09T09:46:09.573Z,3.55
2024-05-09T09:48:42.774Z,4.45
2024-05-09T09:51:14.440Z,1.85
2024-05-09T09:53:46.060Z,2.38
2024-05-09T09:56:18.043Z,3.53
2024-05-09T09:58:49.095Z,2.50
2024-05-09T10:01:18.985Z,4.28
2024-05-09T10:03:50.408Z,1.90
2024-05-09T10:06:23.221Z,3.25
2024-05-09T10:08:54.102Z,4.10
2024-05-09T10:11:25.939Z,2.72
2024-05-09T10:13:57.496Z,2.47
2024-05-09T10:16:31.275Z,2.10
2024-05-09T10:19:02.228Z,1.90
2024-05-09T10:21:32.658Z,4.32
2024-05-09T10:24:03.828Z,2.53
2024-05-09T10:26:36.228Z,2.42
2024-05-09T10:29:16.926Z,2.28
2024-05-09T10:31:47.610Z,2.78
2024-05-09T10:34:24.104Z,2.65
2024-05-09T10:36:55.851Z,3.22
2024-05-09T10:39:26.538Z,2.47
2024-05-09T10:41:56.260Z,2.03
2024-05-09T10:44:26.546Z,3.42
2024-05-09T10:46:56.496Z,3.10
2024-05-09T10:49:26.570Z,2.50
2024-05-09T10:51:56.738Z,2.03
2024-05-09T10:54:40.959Z,2.78
2024-05-09T10:57:10.636Z,3.45
2024-05-09T10:59:43.219Z,2.80
2024-05-09T11:02:13.526Z,2.55
2024-05-09T11:04:48.058Z,1.92
2024-05-09T11:07:20.140Z,2.00
2024-05-09T11:09:50.873Z,2.25
2024-05-09T11:12:20.614Z,3.55
2024-05-09T11:14:54.939Z,3.25
2024-05-09T11:17:25.137Z,3.40
2024-05-09T11:19:56.124Z,2.35
2024-05-09T11:22:32.178Z,2.40
2024-05-09T11:25:03.894Z,3.55
2024-05-09T11:27:34.596Z,2.92
2024-05-09T11:30:09.163Z,2.60
2024-05-09T11:32:44.159Z,2.95
2024-05-09T11:35:15.548Z,3.38
2024-05-09T11:37:46.392Z,2.45
2024-05-09T11:40:24.730Z,3.90
2024-05-09T11:42:59.279Z,2.13
2024-05-09T11:45:30.215Z,1.90
2024-05-09T11:48:00.960Z,2.47
2024-05-09T11:50:35.571Z,2.65
2024-05-09T11:53:07.210Z,2.95
2024-05-09T11:55:38.191Z,2.95
2024-05-09T11:58:09.013Z,4.28
2024-05-09T12:00:38.554Z,2.40
2024-05-09T12:03:08.777Z,2.25
2024-05-09T12:05:39.097Z,2.92
2024-05-09T12:08:09.864Z,3.30
2024-05-09T12:10:41.383Z,2.78
2024-05-09T12:15:42.553Z,3.33
2024-05-09T12:18:14.598Z,4.22
2024-05-09T12:20:44.779Z,3.72
2024-05-09T12:23:16.174Z,2.20
2024-05-09T12:25:46.774Z,2.50
2024-05-09T12:28:17.690Z,3.38
2024-05-09T12:30:49.904Z,6.25
2024-05-09T12:33:20.974Z,2.22
2024-05-09T12:35:51.431Z,4.00
2024-05-09T12:38:22.315Z,5.60
2024-05-09T12:40:52.267Z,2.92
2024-05-09T12:43:22.593Z,2.95
2024-05-09T12:45:52.496Z,3.47
2024-05-09T12:48:23.172Z,2.55
2024-05-09T12:50:55.027Z,3.88
2024-05-09T12:53:25.825Z,1.85
2024-05-09T12:55:59.960Z,2.42
2024-05-09T12:58:32.477Z,2.58
2024-05-09T13:01:02.303Z,3.72
2024-05-09T13:03:32.099Z,2.58
2024-05-09T13:05:59.588Z,3.90
2024-05-09T13:08:27.354Z,3.20
2024-05-09T13:10:57.183Z,2.65
2024-05-09T13:15:58.832Z,2.40
2024-05-09T13:18:28.580Z,3.67
2024-05-09T13:20:58.037Z,2.55
2024-05-09T13:23:27.407Z,2.60
2024-05-09T13:25:56.822Z,4.15
2024-05-09T13:28:26.738Z,3.85
2024-05-09T13:30:56.144Z,3.25
2024-05-09T13:33:25.629Z,3.78
2024-05-09T13:35:55.094Z,2.33
2024-05-09T13:38:25.052Z,3.10
2024-05-09T13:40:54.409Z,2.47
2024-05-09T13:43:23.843Z,3.15
2024-05-09T13:45:55.639Z,3.88
2024-05-09T13:48:25.518Z,3.53
2024-05-09T13:50:55.667Z,4.40
2024-05-09T13:53:25.533Z,4.25
2024-05-09T13:55:54.790Z,4.75
2024-05-09T13:58:24.303Z,3.17
2024-05-09T14:00:53.884Z,3.20
2024-05-09T14:03:24.674Z,3.15
2024-05-09T14:05:54.389Z,2.80
2024-05-09T14:08:24.223Z,2.78
2024-05-09T14:10:53.775Z,3.20
2024-05-09T14:13:23.172Z,3.63
2024-05-09T14:15:52.806Z,2.10
2024-05-09T14:18:22.474Z,2.80
2024-05-09T14:20:52.014Z,3.40
2024-05-09T14:23:22.742Z,5.55
2024-05-09T14:28:26.350Z,2.42
2024-05-09T14:30:56.892Z,3.67
2024-05-09T14:33:27.559Z,4.47
2024-05-09T14:35:57.069Z,2.65
2024-05-09T14:38:27.522Z,3.53
2024-05-09T14:40:57.178Z,4.53
2024-05-09T14:43:27.390Z,3.50
2024-05-09T14:45:57.123Z,3.47
2024-05-09T14:48:27.252Z,3.53
2024-05-09T14:50:56.568Z,2.55
2024-05-09T14:53:27.131Z,3.00
2024-05-09T14:55:57.570Z,2.83
2024-05-09T14:58:26.946Z,3.38
2024-05-09T15:00:56.533Z,5.15
2024-05-09T15:03:25.987Z,3.38
2024-05-09T15:05:55.690Z,2.80
2024-05-09T15:08:25.534Z,3.70
2024-05-09T15:10:55.134Z,4.38
2024-05-09T15:13:25.028Z,3.17
2024-05-09T15:15:54.790Z,3.67
2024-05-09T15:18:24.753Z,4.60
2024-05-09T15:20:54.239Z,3.53
2024-05-09T15:23:24.304Z,3.45
2024-05-09T15:25:53.645Z,4.07
2024-05-09T15:28:23.487Z,4.22
2024-05-09T15:30:53.168Z,8.15
2024-05-09T15:33:22.564Z,4.45
2024-05-09T15:35:52.330Z,5.10
2024-05-09T15:38:21.889Z,3.65
2024-05-09T15:40:51.306Z,3.97
2024-05-09T15:43:20.867Z,4.07
2024-05-09T15:45:50.480Z,4.45
2024-05-09T15:48:20.403Z,6.45
2024-05-09T15:50:50.237Z,5.65
2024-05-09T15:53:19.830Z,4.93
2024-05-09T15:55:49.344Z,3.50
2024-05-09T15:58:20.063Z,4.75
2024-05-09T16:00:52.030Z,3.72
2024-05-09T16:03:22.676Z,4.10
2024-05-09T16:05:52.889Z,4.30
2024-05-09T16:08:23.497Z,4.07
2024-05-09T16:10:53.088Z,4.18
2024-05-09T16:13:22.975Z,4.18
2024-05-09T16:15:52.805Z,6.53
2024-05-09T16:18:22.725Z,5.32
2024-05-09T16:20:59.543Z,6.90
2024-05-09T16:23:29.407Z,3.72
2024-05-09T16:25:58.911Z,4.25
2024-05-09T16:28:28.721Z,4.50
2024-05-09T16:30:59.380Z,4.72
2024-05-09T16:33:29.733Z,3.75
2024-05-09T16:35:59.200Z,6.63
2024-05-09T16:38:28.620Z,5.30
2024-05-09T16:40:58.335Z,3.72
2024-05-09T16:43:27.661Z,5.07
2024-05-09T16:45:57.251Z,3.78
2024-05-09T16:48:27.229Z,4.35
2024-05-09T16:50:56.832Z,6.40
2024-05-09T16:53:26.348Z,4.50
2024-05-09T16:55:56.348Z,4.57
2024-05-09T16:58:26.606Z,5.88
2024-05-09T17:00:56.419Z,5.63
2024-05-09T17:03:26.263Z,3.63
2024-05-09T17:05:56.122Z,6.38
2024-05-09T17:08:25.574Z,6.57
2024-05-09T17:10:55.643Z,6.93
2024-05-09T17:13:25.547Z,5.18
2024-05-09T17:15:55.440Z,8.35
2024-05-09T17:18:25.133Z,5.32
2024-05-09T17:20:55.066Z,5.50
2024-05-09T17:23:24.559Z,5.70
2024-05-09T17:25:54.794Z,6.63
2024-05-09T17:28:24.280Z,8.23
2024-05-09T17:30:54.025Z,9.30
2024-05-09T17:33:25.332Z,8.75
2024-05-09T17:35:54.827Z,8.18
2024-05-09T17:38:24.246Z,7.70
2024-05-09T17:40:55.060Z,9.73
2024-05-09T17:43:26.889Z,8.25
2024-05-09T17:45:56.562Z,6.30
2024-05-09T17:48:27.388Z,8.35
2024-05-09T17:50:57.201Z,7.57
2024-05-09T17:53:26.708Z,9.40
2024-05-09T17:55:56.470Z,8.95
2024-05-09T17:58:27.384Z,7.75
2024-05-09T18:00:57.140Z,7.13
2024-05-09T18:03:27.123Z,8.43
2024-05-09T18:05:57.008Z,8.55
2024-05-09T18:08:26.424Z,8.63
2024-05-09T18:10:56.142Z,8.35
2024-05-09T18:13:26.945Z,9.07
2024-05-09T18:15:56.514Z,11.40
2024-05-09T18:18:26.037Z,10.38
2024-05-09T18:20:55.816Z,12.63
2024-05-09T18:23:25.399Z,11.52
2024-05-09T18:25:56.475Z,11.82
2024-05-09T18:28:25.965Z,12.93
2024-05-09T18:30:55.649Z,13.88
2024-05-09T18:33:25.378Z,13.13
2024-05-09T18:35:55.134Z,12.70
2024-05-09T18:38:27.035Z,13.15
2024-05-09T18:40:56.573Z,13.82
2024-05-09T18:43:31.433Z,14.20
2024-05-09T18:46:07.675Z,12.25
2024-05-09T18:48:38.329Z,14.15
2024-05-09T18:51:07.775Z,11.48
2024-05-09T18:53:37.047Z,10.65
2024-05-09T18:56:07.869Z,10.90
2024-05-09T18:58:37.144Z,11.27
2024-05-09T19:01:06.828Z,14.07
2024-05-09T19:03:36.498Z,11.27
2024-05-09T19:06:06.258Z,13.77
2024-05-09T19:08:35.523Z,15.15
2024-05-09T19:11:05.656Z,12.38
2024-05-09T19:13:35.102Z,11.13
2024-05-09T19:16:04.814Z,10.82
2024-05-09T19:18:34.243Z,13.13
2024-05-09T19:21:01.935Z,13.25
2024-05-09T19:23:32.587Z,12.73
2024-05-09T19:26:03.290Z,13.90
2024-05-09T19:28:34.953Z,15.70
2024-05-09T19:31:04.842Z,10.93
2024-05-09T19:33:32.395Z,12.90
2024-05-09T19:35:59.711Z,10.27
2024-05-09T19:38:29.915Z,11.38
2024-05-09T19:40:59.793Z,13.02
2024-05-09T19:43:30.703Z,10.45
2024-05-09T19:46:01.417Z,10.30
2024-05-09T19:48:31.801Z,11.27
2024-05-09T19:51:02.755Z,13.77
2024-05-09T19:53:32.197Z,13.10
2024-05-09T19:56:01.570Z,11.68
2024-05-09T19:58:30.952Z,12.45
2024-05-09T20:01:00.353Z,14.52
2024-05-09T20:03:32.480Z,17.73
2024-05-09T20:06:01.826Z,11.88
2024-05-09T20:08:31.283Z,13.73
2024-05-09T20:11:00.635Z,16.52
2024-05-09T20:13:30.166Z,20.65
2024-05-09T20:16:01.400Z,17.75
2024-05-09T20:18:31.077Z,15.73
2024-05-09T20:21:01.849Z,16.35
2024-05-09T20:23:31.478Z,16.45
2024-05-09T20:26:01.295Z,14.35
2024-05-09T20:28:30.810Z,12.52
2024-05-09T20:31:00.537Z,14.38
2024-05-09T20:33:29.937Z,14.80
2024-05-09T20:36:01.836Z,16.77
2024-05-09T20:38:31.755Z,17.67
2024-05-09T20:41:01.845Z,17.38
2024-05-09T20:43:33.098Z,15.65
2024-05-09T20:46:03.040Z,16.05
2024-05-09T20:48:34.038Z,16.88
2024-05-09T20:51:03.931Z,15.13
2024-05-09T20:53:33.751Z,15.93
2024-05-09T20:56:03.042Z,16.98
2024-05-09T20:58:32.528Z,16.05
2024-05-09T21:01:01.871Z,16.50
2024-05-09T21:03:32.763Z,17.55
2024-05-09T21:08:32.017Z,17.90
2024-05-09T21:11:01.262Z,16.20
2024-05-09T21:13:31.113Z,17.05
2024-05-09T21:16:00.749Z,19.08
2024-05-09T21:18:30.207Z,16.65
2024-05-09T21:20:59.797Z,16.65
2024-05-09T21:23:29.195Z,17.63
2024-05-09T21:25:58.842Z,15.40
2024-05-09T21:28:28.207Z,12.10
2024-05-09T21:30:57.638Z,11.93
2024-05-09T21:33:27.172Z,13.68
2024-05-09T21:35:56.647Z,12.00
2024-05-09T21:38:25.873Z,14.05
2024-05-09T21:40:55.817Z,12.88
2024-05-09T21:43:28.654Z,12.48
2024-05-09T21:45:58.119Z,10.93
2024-05-09T21:48:28.570Z,14.48
2024-05-09T21:50:58.048Z,10.75
2024-05-09T21:53:27.439Z,15.73
2024-05-09T21:55:57.077Z,12.77
2024-05-09T21:58:26.510Z,11.30
2024-05-09T22:00:55.981Z,12.07
2024-05-09T22:03:25.477Z,12.35
2024-05-09T22:05:54.858Z,12.25
2024-05-09T22:08:24.692Z,11.93
2024-05-09T22:10:54.219Z,12.20
2024-05-09T22:13:24.110Z,12.40
2024-05-09T22:15:53.669Z,16.15
2024-05-09T22:18:23.830Z,11.85
2024-05-09T22:20:53.901Z,13.13
2024-05-09T22:23:23.292Z,12.55
2024-05-09T22:25:52.593Z,12.23
2024-05-09T22:28:22.483Z,13.00
2024-05-09T22:30:53.068Z,11.05
2024-05-09T22:33:22.750Z,13.10
2024-05-09T22:35:52.013Z,11.80
2024-05-09T22:38:22.181Z,10.48
2024-05-09T22:40:52.268Z,12.63
2024-05-09T22:43:24.189Z,14.68
2024-05-09T22:45:55.115Z,14.15
2024-05-09T22:48:26.097Z,12.52
2024-05-09T22:50:55.676Z,12.45
2024-05-09T22:53:26.031Z,13.50
2024-05-09T22:55:55.511Z,12.32
2024-05-09T22:58:25.674Z,12.98
2024-05-09T23:00:53.604Z,12.32
2024-05-09T23:03:22.661Z,14.23
2024-05-09T23:05:52.501Z,15.65
2024-05-09T23:08:22.282Z,13.23
2024-05-09T23:10:51.580Z,12.45
2024-05-09T23:13:21.230Z,13.73
2024-05-09T23:15:50.524Z,12.32
2024-05-09T23:18:19.990Z,12.95
2024-05-09T23:20:50.060Z,12.80
2024-05-09T23:23:20.856Z,12.27
2024-05-09T23:25:50.310Z,13.23
2024-05-09T23:28:19.737Z,12.52
2024-05-09T23:30:49.124Z,13.70
2024-05-09T23:33:18.617Z,12.82
2024-05-09T23:35:48.611Z,13.38
2024-05-09T23:38:22.504Z,12.45
2024-05-09T23:40:53.036Z,12.93
2024-05-09T23:43:22.938Z,17.65
2024-05-09T23:45:50.425Z,11.75
2024-05-09T23:48:18.040Z,14.35
2024-05-09T23:50:47.439Z,12.35
2024-05-09T23:53:17.590Z,13.50
2024-05-09T23:55:46.835Z,13.75
2024-05-09T23:58:16.749Z,15.13
